sensor_id;sensor_type;location;lat;lon;timestamp;temperature;humidity
16674;DHT22;8450;52.654;10.326;2022-09-21T05:55:42;4.40;99.90
16674;DHT22;8450;52.654;10.326;2022-09-21T05:58:35;4.40;99.90
16674;DHT22;8450;52.654;10.326;2022-09-21T06:01:26;4.30;99.90
16674;DHT22;8450;52.654;10.326;2022-09-21T06:03:57;4.30;99.90
16674;DHT22;8450;52.654;10.326;2022-09-21T06:06:23;4.30;99.90
16674;DHT22;8450;52.654;10.326;2022-09-21T06:08:49;4.30;99.90
16674;DHT22;8450;52.654;10.326;2022-09-21T06:11:15;4.30;99.90
16674;DHT22;8450;52.654;10.326;2022-09-21T06:13:41;4.30;99.90
16674;DHT22;8450;52.654;10.326;2022-09-21T06:16:07;4.40;99.90
16674;DHT22;8450;52.654;10.326;2022-09-21T06:18:39;4.40;99.90
16674;DHT22;8450;52.654;10.326;2022-09-21T06:21:07;4.40;99.90
16674;DHT22;8450;52.654;10.326;2022-09-21T06:23:33;4.50;99.90
16674;DHT22;8450;52.654;10.326;2022-09-21T06:25:58;4.50;99.90
16674;DHT22;8450;52.654;10.326;2022-09-21T06:28:24;4.50;99.90
16674;DHT22;8450;52.654;10.326;2022-09-21T06:30:51;4.50;99.90
16674;DHT22;8450;52.654;10.326;2022-09-21T06:33:17;4.60;99.90
16674;DHT22;8450;52.654;10.326;2022-09-21T06:35:52;4.60;99.90
16674;DHT22;8450;52.654;10.326;2022-09-21T06:38:18;4.60;99.90
16674;DHT22;8450;52.654;10.326;2022-09-21T06:40:43;4.60;99.90
16674;DHT22;8450;52.654;10.326;2022-09-21T06:43:09;4.60;99.90
16674;DHT22;8450;52.654;10.326;2022-09-21T06:45:34;4.70;99.90
16674;DHT22;8450;52.654;10.326;2022-09-21T06:48:00;4.70;99.90
16674;DHT22;8450;52.654;10.326;2022-09-21T06:50:25;4.70;99.90
16674;DHT22;8450;52.654;10.326;2022-09-21T06:52:51;4.80;99.90
16674;DHT22;8450;52.654;10.326;2022-09-21T06:55:17;4.80;99.90
16674;DHT22;8450;52.654;10.326;2022-09-21T06:57:42;4.90;99.90
16674;DHT22;8450;52.654;10.326;2022-09-21T07:00:11;5.00;99.90
16674;DHT22;8450;52.654;10.326;2022-09-21T07:02:36;5.10;99.90
16674;DHT22;8450;52.654;10.326;2022-09-21T07:05:03;5.20;99.90
16674;DHT22;8450;52.654;10.326;2022-09-21T07:07:29;5.30;99.90
16674;DHT22;8450;52.654;10.326;2022-09-21T07:09:55;5.50;99.90
16674;DHT22;8450;52.654;10.326;2022-09-21T07:12:23;5.70;99.90
16674;DHT22;8450;52.654;10.326;2022-09-21T07:14:50;5.80;99.90
16674;DHT22;8450;52.654;10.326;2022-09-21T07:17:16;6.00;99.90
16674;DHT22;8450;52.654;10.326;2022-09-21T07:19:41;6.10;99.90
16674;DHT22;8450;52.654;10.326;2022-09-21T07:22:07;6.30;99.90
16674;DHT22;8450;52.654;10.326;2022-09-21T07:24:33;6.40;99.90
16674;DHT22;8450;52.654;10.326;2022-09-21T07:26:58;6.60;99.90
16674;DHT22;8450;52.654;10.326;2022-09-21T07:29:24;6.70;99.90
16674;DHT22;8450;52.654;10.326;2022-09-21T07:31:49;6.90;99.90
16674;DHT22;8450;52.654;10.326;2022-09-21T07:34:15;7.10;99.90
16674;DHT22;8450;52.654;10.326;2022-09-21T07:36:41;7.20;99.90
16674;DHT22;8450;52.654;10.326;2022-09-21T07:39:08;7.40;99.90
16674;DHT22;8450;52.654;10.326;2022-09-21T07:41:34;7.50;99.90
16674;DHT22;8450;52.654;10.326;2022-09-21T07:44:00;7.70;99.90
16674;DHT22;8450;52.654;10.326;2022-09-21T07:46:26;7.80;99.90
16674;DHT22;8450;52.654;10.326;2022-09-21T07:48:55;8.00;99.90
16674;DHT22;8450;52.654;10.326;2022-09-21T07:51:21;8.10;99.90
16674;DHT22;8450;52.654;10.326;2022-09-21T07:53:52;8.30;99.90
16674;DHT22;8450;52.654;10.326;2022-09-21T07:56:17;8.40;99.90
16674;DHT22;8450;52.654;10.326;2022-09-21T07:58:44;8.50;99.90
16674;DHT22;8450;52.654;10.326;2022-09-21T08:01:29;8.70;99.90
16674;DHT22;8450;52.654;10.326;2022-09-21T08:03:56;8.90;99.90
16674;DHT22;8450;52.654;10.326;2022-09-21T08:06:23;9.10;99.90
16674;DHT22;8450;52.654;10.326;2022-09-21T08:08:50;9.20;99.90
16674;DHT22;8450;52.654;10.326;2022-09-21T08:11:17;9.40;99.90
16674;DHT22;8450;52.654;10.326;2022-09-21T08:13:44;9.60;99.90
16674;DHT22;8450;52.654;10.326;2022-09-21T08:16:10;9.70;99.90
16674;DHT22;8450;52.654;10.326;2022-09-21T08:18:37;9.80;99.90
16674;DHT22;8450;52.654;10.326;2022-09-21T08:21:03;10.00;99.90
16674;DHT22;8450;52.654;10.326;2022-09-21T08:23:29;10.10;99.90
16674;DHT22;8450;52.654;10.326;2022-09-21T08:26:02;10.30;99.90
16674;DHT22;8450;52.654;10.326;2022-09-21T08:28:30;10.50;99.90
16674;DHT22;8450;52.654;10.326;2022-09-21T08:30:59;10.60;99.90
16674;DHT22;8450;52.654;10.326;2022-09-21T08:33:25;10.80;99.90
16674;DHT22;8450;52.654;10.326;2022-09-21T08:35:56;11.00;99.90
16674;DHT22;8450;52.654;10.326;2022-09-21T08:38:22;11.10;99.90
16674;DHT22;8450;52.654;10.326;2022-09-21T08:40:48;11.30;99.90
16674;DHT22;8450;52.654;10.326;2022-09-21T08:43:42;11.40;99.90
16674;DHT22;8450;52.654;10.326;2022-09-21T08:46:23;11.60;99.90
16674;DHT22;8450;52.654;10.326;2022-09-21T08:48:54;11.80;99.90
16674;DHT22;8450;52.654;10.326;2022-09-21T08:51:25;11.90;99.90
16674;DHT22;8450;52.654;10.326;2022-09-21T08:53:58;12.00;99.90
16674;DHT22;8450;52.654;10.326;2022-09-21T08:56:26;12.10;99.90
16674;DHT22;8450;52.654;10.326;2022-09-21T08:58:52;12.30;99.90
16674;DHT22;8450;52.654;10.326;2022-09-21T09:01:42;12.50;99.90
16674;DHT22;8450;52.654;10.326;2022-09-21T09:07:14;12.90;99.90
16674;DHT22;8450;52.654;10.326;2022-09-21T09:18:23;13.50;99.90
16674;DHT22;8450;52.654;10.326;2022-09-21T09:20:59;13.70;99.90
16674;DHT22;8450;52.654;10.326;2022-09-21T09:23:28;13.90;99.90
16674;DHT22;8450;52.654;10.326;2022-09-21T09:26:13;14.10;99.90
16674;DHT22;8450;52.654;10.326;2022-09-21T09:28:47;14.20;99.90
16674;DHT22;8450;52.654;10.326;2022-09-21T09:31:22;14.40;99.90
16674;DHT22;8450;52.654;10.326;2022-09-21T09:36:45;14.70;99.90
16674;DHT22;8450;52.654;10.326;2022-09-21T09:39:14;14.80;99.90
16674;DHT22;8450;52.654;10.326;2022-09-21T09:44:45;15.10;99.90
16674;DHT22;8450;52.654;10.326;2022-09-21T09:47:42;15.10;99.90
16674;DHT22;8450;52.654;10.326;2022-09-21T09:52:45;15.50;99.90
16674;DHT22;8450;52.654;10.326;2022-09-21T09:55:21;15.60;99.90
16674;DHT22;8450;52.654;10.326;2022-09-21T09:57:47;15.80;99.90
16674;DHT22;8450;52.654;10.326;2022-09-21T10:00:16;16.00;99.90
16674;DHT22;8450;52.654;10.326;2022-09-21T10:02:54;16.10;99.90
16674;DHT22;8450;52.654;10.326;2022-09-21T10:07:45;16.30;99.90
16674;DHT22;8450;52.654;10.326;2022-09-21T10:10:31;16.40;99.90
16674;DHT22;8450;52.654;10.326;2022-09-21T10:13:17;16.60;99.90
16674;DHT22;8450;52.654;10.326;2022-09-21T10:15:58;16.60;99.90
16674;DHT22;8450;52.654;10.326;2022-09-21T10:21:25;16.50;99.90
16674;DHT22;8450;52.654;10.326;2022-09-21T10:24:06;16.60;99.90
16674;DHT22;8450;52.654;10.326;2022-09-21T10:26:39;16.60;99.90
16674;DHT22;8450;52.654;10.326;2022-09-21T10:29:31;16.90;99.90
16674;DHT22;8450;52.654;10.326;2022-09-21T10:32:17;17.10;99.90
16674;DHT22;8450;52.654;10.326;2022-09-21T10:35:01;17.20;99.90
16674;DHT22;8450;52.654;10.326;2022-09-21T10:37:43;17.30;99.90
16674;DHT22;8450;52.654;10.326;2022-09-21T10:42:42;17.50;99.90
16674;DHT22;8450;52.654;10.326;2022-09-21T10:45:23;17.50;99.90
16674;DHT22;8450;52.654;10.326;2022-09-21T10:55:36;17.90;99.90
16674;DHT22;8450;52.654;10.326;2022-09-21T10:58:11;17.90;99.90
16674;DHT22;8450;52.654;10.326;2022-09-21T11:00:41;18.10;99.90
16674;DHT22;8450;52.654;10.326;2022-09-21T11:03:47;18.20;99.90
16674;DHT22;8450;52.654;10.326;2022-09-21T11:06:20;18.30;99.90
16674;DHT22;8450;52.654;10.326;2022-09-21T11:09:04;18.40;99.90
16674;DHT22;8450;52.654;10.326;2022-09-21T11:11:58;18.70;99.90
16674;DHT22;8450;52.654;10.326;2022-09-21T11:14:42;18.80;99.90
16674;DHT22;8450;52.654;10.326;2022-09-21T11:19:54;19.10;99.90
16674;DHT22;8450;52.654;10.326;2022-09-21T11:27:46;18.70;99.90
16674;DHT22;8450;52.654;10.326;2022-09-21T11:30:15;18.70;99.90
16674;DHT22;8450;52.654;10.326;2022-09-21T11:33:14;18.60;99.90
16674;DHT22;8450;52.654;10.326;2022-09-21T11:38:39;18.40;99.90
16674;DHT22;8450;52.654;10.326;2022-09-21T11:49:04;18.60;99.90
16674;DHT22;8450;52.654;10.326;2022-09-21T11:51:50;18.60;99.90
16674;DHT22;8450;52.654;10.326;2022-09-21T11:54:59;18.90;99.90
16674;DHT22;8450;52.654;10.326;2022-09-21T11:57:30;19.00;99.90
16674;DHT22;8450;52.654;10.326;2022-09-21T12:00:04;19.20;99.90
16674;DHT22;8450;52.654;10.326;2022-09-21T12:03:12;19.30;99.90
16674;DHT22;8450;52.654;10.326;2022-09-21T12:06:03;19.30;99.90
16674;DHT22;8450;52.654;10.326;2022-09-21T12:11:57;19.30;99.90
16674;DHT22;8450;52.654;10.326;2022-09-21T12:17:21;19.10;99.90
16674;DHT22;8450;52.654;10.326;2022-09-21T12:22:41;19.20;99.90
16674;DHT22;8450;52.654;10.326;2022-09-21T12:25:19;19.10;99.90
16674;DHT22;8450;52.654;10.326;2022-09-21T12:28:01;19.00;99.90
16674;DHT22;8450;52.654;10.326;2022-09-21T12:30:29;19.00;99.90
16674;DHT22;8450;52.654;10.326;2022-09-21T12:35:57;18.90;99.90
16674;DHT22;8450;52.654;10.326;2022-09-21T12:38:40;19.10;99.90
16674;DHT22;8450;52.654;10.326;2022-09-21T12:41:31;19.20;99.90
16674;DHT22;8450;52.654;10.326;2022-09-21T12:47:09;19.30;99.90
16674;DHT22;8450;52.654;10.326;2022-09-21T12:49:45;19.20;99.90
16674;DHT22;8450;52.654;10.326;2022-09-21T12:52:20;19.40;99.90
16674;DHT22;8450;52.654;10.326;2022-09-21T12:55:18;19.60;99.90
16674;DHT22;8450;52.654;10.326;2022-09-21T12:58:05;19.70;99.90
16674;DHT22;8450;52.654;10.326;2022-09-21T13:00:41;19.70;99.90
16674;DHT22;8450;52.654;10.326;2022-09-21T13:03:20;19.70;99.90
16674;DHT22;8450;52.654;10.326;2022-09-21T13:08:50;19.70;99.90
16674;DHT22;8450;52.654;10.326;2022-09-21T13:11:16;19.60;99.90
16674;DHT22;8450;52.654;10.326;2022-09-21T13:13:56;19.70;99.90
16674;DHT22;8450;52.654;10.326;2022-09-21T13:16:29;19.60;99.90
16674;DHT22;8450;52.654;10.326;2022-09-21T13:19:18;19.70;99.90
16674;DHT22;8450;52.654;10.326;2022-09-21T13:21:44;19.80;99.90
16674;DHT22;8450;52.654;10.326;2022-09-21T13:24:28;19.90;99.90
16674;DHT22;8450;52.654;10.326;2022-09-21T13:26:56;20.00;99.90
16674;DHT22;8450;52.654;10.326;2022-09-21T13:29:29;19.90;99.90
16674;DHT22;8450;52.654;10.326;2022-09-21T13:31:56;20.00;99.90
16674;DHT22;8450;52.654;10.326;2022-09-21T13:34:24;20.00;99.90
16674;DHT22;8450;52.654;10.326;2022-09-21T13:37:27;20.00;99.90
16674;DHT22;8450;52.654;10.326;2022-09-21T13:47:50;20.30;99.90
16674;DHT22;8450;52.654;10.326;2022-09-21T13:50:30;20.40;99.90
16674;DHT22;8450;52.654;10.326;2022-09-21T13:53:05;20.40;99.90
16674;DHT22;8450;52.654;10.326;2022-09-21T13:55:34;20.30;99.90
16674;DHT22;8450;52.654;10.326;2022-09-21T13:58:05;20.20;99.90
16674;DHT22;8450;52.654;10.326;2022-09-21T14:00:42;20.20;99.90
16674;DHT22;8450;52.654;10.326;2022-09-21T14:03:32;20.20;99.90
16674;DHT22;8450;52.654;10.326;2022-09-21T14:06:12;20.20;99.90
16674;DHT22;8450;52.654;10.326;2022-09-21T14:08:44;20.20;99.90
16674;DHT22;8450;52.654;10.326;2022-09-21T14:11:16;20.20;99.90
16674;DHT22;8450;52.654;10.326;2022-09-21T14:14:12;20.20;99.90
16674;DHT22;8450;52.654;10.326;2022-09-21T14:24:36;20.20;99.90
16674;DHT22;8450;52.654;10.326;2022-09-21T14:27:24;20.20;99.90
16674;DHT22;8450;52.654;10.326;2022-09-21T14:30:02;20.10;99.90
16674;DHT22;8450;52.654;10.326;2022-09-21T14:32:40;19.90;99.90
16674;DHT22;8450;52.654;10.326;2022-09-21T14:35:15;19.90;99.90
16674;DHT22;8450;52.654;10.326;2022-09-21T14:37:54;19.90;99.90
16674;DHT22;8450;52.654;10.326;2022-09-21T14:40:37;20.00;99.90
16674;DHT22;8450;52.654;10.326;2022-09-21T14:43:17;20.00;99.90
16674;DHT22;8450;52.654;10.326;2022-09-21T14:55:17;19.90;99.90
16674;DHT22;8450;52.654;10.326;2022-09-21T15:00:45;20.00;99.90
16674;DHT22;8450;52.654;10.326;2022-09-21T15:09:55;20.00;99.90
16674;DHT22;8450;52.654;10.326;2022-09-21T15:18:21;19.90;99.90
16674;DHT22;8450;52.654;10.326;2022-09-21T15:20:57;19.80;99.90
16674;DHT22;8450;52.654;10.326;2022-09-21T15:23:28;19.70;99.90
16674;DHT22;8450;52.654;10.326;2022-09-21T15:25:59;19.60;99.90
16674;DHT22;8450;52.654;10.326;2022-09-21T15:28:37;19.60;99.90
16674;DHT22;8450;52.654;10.326;2022-09-21T15:31:04;19.50;99.90
16674;DHT22;8450;52.654;10.326;2022-09-21T15:33:36;19.50;99.90
16674;DHT22;8450;52.654;10.326;2022-09-21T15:36:02;19.40;99.90
16674;DHT22;8450;52.654;10.326;2022-09-21T15:38:30;19.40;99.90
16674;DHT22;8450;52.654;10.326;2022-09-21T15:40:57;19.40;99.90
16674;DHT22;8450;52.654;10.326;2022-09-21T15:43:22;19.40;99.90
16674;DHT22;8450;52.654;10.326;2022-09-21T15:45:54;19.30;99.90
16674;DHT22;8450;52.654;10.326;2022-09-21T15:48:21;19.30;99.90
16674;DHT22;8450;52.654;10.326;2022-09-21T15:50:53;19.20;99.90
16674;DHT22;8450;52.654;10.326;2022-09-21T15:53:29;19.10;99.90
16674;DHT22;8450;52.654;10.326;2022-09-21T15:55:57;19.10;99.90
16674;DHT22;8450;52.654;10.326;2022-09-21T15:58:33;19.10;99.90
16674;DHT22;8450;52.654;10.326;2022-09-21T16:01:13;19.00;99.90
16674;DHT22;8450;52.654;10.326;2022-09-21T16:03:40;18.90;99.90
16674;DHT22;8450;52.654;10.326;2022-09-21T16:06:25;18.90;99.90
16674;DHT22;8450;52.654;10.326;2022-09-21T16:08:51;18.90;99.90
16674;DHT22;8450;52.654;10.326;2022-09-21T16:11:32;18.80;99.90
16674;DHT22;8450;52.654;10.326;2022-09-21T16:14:15;18.80;99.90
16674;DHT22;8450;52.654;10.326;2022-09-21T16:22:40;18.60;99.90
16674;DHT22;8450;52.654;10.326;2022-09-21T16:25:21;18.50;99.90
16674;DHT22;8450;52.654;10.326;2022-09-21T16:30:51;18.40;99.90
16674;DHT22;8450;52.654;10.326;2022-09-21T16:33:40;18.30;99.90
16674;DHT22;8450;52.654;10.326;2022-09-21T16:38:44;18.10;99.90
16674;DHT22;8450;52.654;10.326;2022-09-21T16:41:21;18.10;99.90
16674;DHT22;8450;52.654;10.326;2022-09-21T16:43:47;17.90;99.90
